createdAt,value
2023-04-05T00:01:13.722Z,-0.55
2023-04-05T00:04:00.212Z,-0.56
2023-04-05T00:06:50.558Z,-0.63
2023-04-05T00:09:36.596Z,-0.63
2023-04-05T00:12:22.152Z,-0.64
2023-04-05T00:15:08.638Z,-0.67
2023-04-05T00:17:54.988Z,-0.70
2023-04-05T00:20:41.060Z,-0.76
2023-04-05T00:23:29.258Z,-0.79
2023-04-05T00:26:15.565Z,-0.83
2023-04-05T00:29:06.256Z,-0.84
2023-04-05T00:31:52.088Z,-0.87
2023-04-05T00:34:38.792Z,-0.89
2023-04-05T00:37:25.097Z,-0.90
2023-04-05T00:40:12.428Z,-0.94
2023-04-05T00:42:58.536Z,-0.94
2023-04-05T00:45:44.232Z,-0.98
2023-04-05T00:48:30.018Z,-0.98
2023-04-05T00:51:17.194Z,-1.02
2023-04-05T00:54:03.485Z,-1.06
2023-04-05T00:56:53.056Z,-1.08
2023-04-05T00:59:38.830Z,-1.11
2023-04-05T01:02:26.147Z,-1.13
2023-04-05T01:05:15.714Z,-1.14
2023-04-05T01:08:08.930Z,-1.18
2023-04-05T01:10:56.092Z,-1.20
2023-04-05T01:13:44.782Z,-1.24
2023-04-05T01:16:30.805Z,-1.33
2023-04-05T01:19:17.136Z,-1.32
2023-04-05T01:22:21.853Z,-1.35
2023-04-05T01:25:11.713Z,-1.38
2023-04-05T01:28:05.214Z,-1.44
2023-04-05T01:30:55.646Z,-1.44
2023-04-05T01:33:42.613Z,-1.46
2023-04-05T01:36:29.960Z,-1.50
2023-04-05T01:39:16.227Z,-1.56
2023-04-05T01:42:02.180Z,-1.57
2023-04-05T01:44:48.306Z,-1.56
2023-04-05T01:47:35.547Z,-1.59
2023-04-05T01:50:21.709Z,-1.59
2023-04-05T01:53:07.983Z,-1.64
2023-04-05T01:55:54.590Z,-1.66
2023-04-05T01:58:40.226Z,-1.72
2023-04-05T02:01:26.720Z,-1.76
2023-04-05T02:04:14.363Z,-1.76
2023-04-05T02:07:00.848Z,-1.78
2023-04-05T02:09:46.784Z,-1.82
2023-04-05T02:12:32.639Z,-1.82
2023-04-05T02:15:18.289Z,-1.87
2023-04-05T02:18:04.331Z,-1.92
2023-04-05T02:20:51.754Z,-1.90
2023-04-05T02:23:38.088Z,-1.94
2023-04-05T02:26:24.135Z,-1.97
2023-04-05T02:29:10.020Z,-1.98
2023-04-05T02:31:56.114Z,-2.03
2023-04-05T02:34:43.851Z,-2.05
2023-04-05T02:37:31.148Z,-2.06
2023-04-05T02:40:16.996Z,-2.05
2023-04-05T02:43:02.891Z,-2.05
2023-04-05T02:45:49.142Z,-2.05
2023-04-05T02:48:37.396Z,-2.07
2023-04-05T02:51:24.217Z,-2.10
2023-04-05T02:54:11.482Z,-2.11
2023-04-05T02:57:02.246Z,-2.12
2023-04-05T02:59:53.068Z,-2.14
2023-04-05T03:02:41.017Z,-2.19
2023-04-05T03:05:27.642Z,-2.18
2023-04-05T03:08:18.737Z,-2.21
2023-04-05T03:11:13.782Z,-2.22
2023-04-05T03:14:03.484Z,-2.24
2023-04-05T03:17:03.198Z,-2.27
2023-04-05T03:19:55.373Z,-2.31
2023-04-05T03:22:44.225Z,-2.37
2023-04-05T03:25:32.112Z,-2.36
2023-04-05T03:28:19.769Z,-2.39
2023-04-05T03:31:10.411Z,-2.44
2023-04-05T03:33:56.912Z,-2.46
2023-04-05T03:36:47.672Z,-2.49
2023-04-05T03:39:46.222Z,-2.48
2023-04-05T03:42:33.114Z,-2.50
2023-04-05T03:45:24.030Z,-2.49
2023-04-05T03:48:11.273Z,-2.52
2023-04-05T03:50:57.457Z,-2.55
2023-04-05T03:53:43.157Z,-2.59
2023-04-05T03:56:29.008Z,-2.63
2023-04-05T03:59:17.170Z,-2.61
2023-04-05T04:02:04.693Z,-2.61
2023-04-05T04:04:51.633Z,-2.64
2023-04-05T04:07:37.953Z,-2.62
2023-04-05T04:10:24.210Z,-2.67
2023-04-05T04:13:13.483Z,-2.68
2023-04-05T04:15:59.441Z,-2.71
2023-04-05T04:19:05.444Z,-2.71
2023-04-05T04:21:59.037Z,-2.75
2023-04-05T04:25:11.026Z,-2.77
2023-04-05T04:28:19.317Z,-2.80
2023-04-05T04:31:14.390Z,-2.85
2023-04-05T04:34:18.534Z,-2.84
2023-04-05T04:37:30.170Z,-2.87
2023-04-05T04:40:38.928Z,-2.88
2023-04-05T04:43:46.876Z,-2.87
2023-04-05T04:46:54.626Z,-2.89
2023-04-05T04:50:00.840Z,-2.90
2023-04-05T04:52:48.267Z,-2.93
2023-04-05T04:55:36.113Z,-2.93
2023-04-05T04:58:21.884Z,-2.93
2023-04-05T05:01:18.463Z,-2.93
2023-04-05T05:04:04.899Z,-2.95
2023-04-05T05:06:56.325Z,-2.96
2023-04-05T05:09:42.366Z,-2.99
2023-04-05T05:12:30.060Z,-3.01
2023-04-05T05:15:16.327Z,-3.01
2023-04-05T05:18:03.385Z,-3.00
2023-04-05T05:20:51.743Z,-3.02
2023-04-05T05:23:38.894Z,-3.03
2023-04-05T05:26:25.248Z,-3.00
2023-04-05T05:29:11.304Z,-2.99
2023-04-05T05:32:00.675Z,-2.97
2023-04-05T05:34:48.578Z,-2.96
2023-04-05T05:37:34.903Z,-2.96
2023-04-05T05:40:22.973Z,-2.92
2023-04-05T05:43:10.465Z,-2.88
2023-04-05T05:45:56.467Z,-2.88
2023-04-05T05:48:42.745Z,-2.85
2023-04-05T05:51:28.416Z,-2.82
2023-04-05T05:54:14.595Z,-2.80
2023-04-05T05:57:02.181Z,-2.76
2023-04-05T05:59:48.207Z,-2.68
2023-04-05T06:02:34.183Z,-2.65
2023-04-05T06:05:20.459Z,-2.57
2023-04-05T06:08:06.269Z,-2.49
2023-04-05T06:10:53.199Z,-2.38
2023-04-05T06:13:40.861Z,-2.30
2023-04-05T06:16:27.189Z,-2.18
2023-04-05T06:19:13.072Z,-2.04
2023-04-05T06:22:00.704Z,-1.93
2023-04-05T06:24:46.420Z,-1.79
2023-04-05T06:27:32.413Z,-1.62
2023-04-05T06:30:19.798Z,-1.45
2023-04-05T06:33:05.730Z,-1.29
2023-04-05T06:35:51.928Z,-1.19
2023-04-05T06:38:37.637Z,-1.02
2023-04-05T06:41:23.561Z,-0.89
2023-04-05T06:44:09.323Z,-0.66
2023-04-05T06:46:56.399Z,-0.41
2023-04-05T06:49:42.620Z,-0.19
2023-04-05T06:52:28.408Z,0.02
2023-04-05T06:55:14.158Z,0.24
2023-04-05T06:58:00.200Z,0.46
2023-04-05T07:00:46.954Z,0.60
2023-04-05T07:03:34.148Z,0.77
2023-04-05T07:06:21.494Z,0.92
2023-04-05T07:09:07.257Z,1.26
2023-04-05T07:11:53.103Z,1.52
2023-04-05T07:14:39.000Z,1.73
2023-04-05T07:17:25.553Z,2.02
2023-04-05T07:20:14.254Z,2.19
2023-04-05T07:23:00.581Z,2.31
2023-04-05T07:25:47.167Z,2.66
2023-04-05T07:28:35.383Z,2.78
2023-04-05T07:31:21.482Z,2.98
2023-04-05T07:34:07.821Z,3.18
2023-04-05T07:36:55.764Z,3.30
2023-04-05T07:39:41.690Z,3.56
2023-04-05T07:42:27.994Z,3.81
2023-04-05T07:45:14.302Z,3.96
2023-04-05T07:48:00.358Z,4.27
2023-04-05T07:50:47.929Z,4.49
2023-04-05T07:53:35.474Z,4.75
2023-04-05T07:56:23.028Z,5.07
2023-04-05T07:59:09.522Z,5.10
2023-04-05T08:01:57.245Z,5.50
2023-04-05T08:04:48.399Z,5.67
2023-04-05T08:07:34.846Z,5.78
2023-04-05T08:10:22.212Z,6.20
2023-04-05T08:13:08.217Z,6.58
2023-04-05T08:15:56.244Z,6.98
2023-04-05T08:18:42.255Z,7.30
2023-04-05T08:21:27.978Z,7.58
2023-04-05T08:24:13.913Z,8.03
2023-04-05T08:27:01.364Z,8.03
2023-04-05T08:29:47.503Z,8.63
2023-04-05T08:32:33.530Z,9.09
2023-04-05T08:35:19.784Z,9.65
2023-04-05T08:38:05.678Z,10.00
2023-04-05T08:40:52.077Z,10.00
2023-04-05T08:43:44.534Z,10.38
2023-04-05T08:46:31.299Z,10.57
2023-04-05T08:49:17.133Z,11.02
2023-04-05T08:52:03.849Z,11.59
2023-04-05T08:54:51.067Z,12.24
2023-04-05T08:57:37.451Z,12.03
2023-04-05T09:00:24.662Z,12.31
2023-04-05T09:03:12.502Z,12.10
2023-04-05T09:05:59.697Z,12.38
2023-04-05T09:08:45.850Z,12.83
2023-04-05T09:11:31.959Z,13.08
2023-04-05T09:14:18.001Z,13.50
2023-04-05T09:17:05.447Z,13.47
2023-04-05T09:19:52.817Z,14.02
2023-04-05T09:22:45.986Z,13.91
2023-04-05T09:25:36.833Z,14.45
2023-04-05T09:28:22.632Z,15.00
2023-04-05T09:31:08.732Z,15.47
2023-04-05T09:33:56.004Z,15.43
2023-04-05T09:36:44.569Z,15.12
2023-04-05T09:39:31.460Z,14.79
2023-04-05T09:42:17.954Z,14.29
2023-04-05T09:45:07.178Z,14.04
2023-04-05T09:47:58.768Z,13.82
2023-04-05T09:50:46.424Z,13.70
2023-04-05T09:53:32.843Z,13.68
2023-04-05T09:56:19.166Z,13.95
2023-04-05T09:59:07.287Z,14.28
2023-04-05T10:01:54.034Z,14.44
2023-04-05T10:04:40.854Z,14.42
2023-04-05T10:07:28.243Z,15.29
2023-04-05T10:10:16.027Z,15.47
2023-04-05T10:13:01.938Z,15.84
2023-04-05T10:15:48.395Z,16.26
2023-04-05T10:18:39.678Z,16.14
2023-04-05T10:21:27.742Z,16.43
2023-04-05T10:24:16.952Z,16.27
2023-04-05T10:27:05.560Z,15.82
2023-04-05T10:29:52.330Z,16.66
2023-04-05T10:32:43.518Z,16.81
2023-04-05T10:35:31.371Z,16.99
2023-04-05T10:38:20.567Z,17.11
2023-04-05T10:41:11.448Z,17.16
2023-04-05T10:43:57.539Z,17.49
2023-04-05T10:46:43.222Z,17.74
2023-04-05T10:49:30.887Z,17.27
2023-04-05T10:52:16.541Z,17.59
2023-04-05T10:55:03.368Z,17.93
2023-04-05T10:57:50.413Z,18.19
2023-04-05T11:00:36.197Z,18.68
2023-04-05T11:03:41.084Z,18.83
2023-04-05T11:06:32.354Z,18.34
2023-04-05T11:09:20.338Z,18.30
2023-04-05T11:12:06.590Z,18.33
2023-04-05T11:14:53.972Z,17.21
2023-04-05T11:17:40.179Z,16.73
2023-04-05T11:20:26.219Z,16.07
2023-04-05T11:23:13.158Z,16.20
2023-04-05T11:26:05.592Z,16.44
2023-04-05T11:28:51.374Z,17.14
2023-04-05T11:31:41.563Z,17.67
2023-04-05T11:34:27.770Z,17.02
2023-04-05T11:37:14.261Z,17.81
2023-04-05T11:40:15.056Z,16.77
2023-04-05T11:43:02.337Z,17.13
2023-04-05T11:45:48.551Z,17.05
2023-04-05T11:48:36.458Z,16.99
2023-04-05T11:51:22.389Z,17.44
2023-04-05T11:54:08.342Z,17.18
2023-04-05T11:56:54.607Z,17.00
2023-04-05T11:59:40.912Z,17.59
2023-04-05T12:02:27.045Z,18.08
2023-04-05T12:05:14.764Z,18.65
2023-04-05T12:08:00.960Z,18.88
2023-04-05T12:10:54.170Z,19.25
2023-04-05T12:13:40.057Z,19.69
2023-04-05T12:16:25.965Z,20.06
2023-04-05T12:19:11.859Z,19.96
2023-04-05T12:21:58.975Z,19.53
2023-04-05T12:24:44.713Z,19.41
2023-04-05T12:27:30.536Z,19.27
2023-04-05T12:30:17.693Z,19.38
2023-04-05T12:33:08.224Z,19.14
2023-04-05T12:35:54.487Z,19.26
2023-04-05T12:38:41.565Z,19.56
2023-04-05T12:41:28.255Z,19.51
2023-04-05T12:44:15.960Z,19.55
2023-04-05T12:47:03.056Z,19.06
2023-04-05T12:49:48.901Z,19.48
2023-04-05T12:52:34.641Z,19.31
2023-04-05T12:55:22.343Z,19.30
2023-04-05T12:58:08.640Z,18.91
2023-04-05T13:00:54.370Z,17.56
2023-04-05T13:03:40.130Z,17.11
2023-04-05T13:06:27.270Z,17.37
2023-04-05T13:09:13.154Z,17.24
2023-04-05T13:12:00.386Z,16.91
2023-04-05T13:14:46.573Z,16.04
2023-04-05T13:17:32.312Z,16.05
2023-04-05T13:20:18.868Z,16.17
2023-04-05T13:23:10.692Z,15.75
2023-04-05T13:25:57.052Z,15.47
2023-04-05T13:28:44.171Z,15.31
2023-04-05T13:31:29.930Z,15.05
2023-04-05T13:34:15.760Z,14.95
2023-04-05T13:37:01.577Z,14.87
2023-04-05T13:39:47.465Z,14.13
2023-04-05T13:42:33.494Z,14.28
2023-04-05T13:45:20.949Z,14.23
2023-04-05T13:48:07.222Z,14.21
2023-04-05T13:50:53.015Z,13.98
2023-04-05T13:53:38.718Z,13.82
2023-04-05T13:56:24.524Z,13.52
2023-04-05T13:59:10.296Z,13.35
2023-04-05T14:01:58.111Z,13.13
2023-04-05T14:04:44.454Z,12.73
2023-04-05T14:07:30.440Z,12.45
2023-04-05T14:10:16.966Z,12.44
2023-04-05T14:13:03.229Z,12.26
2023-04-05T14:15:49.438Z,11.90
2023-04-05T14:18:37.202Z,11.45
2023-04-05T14:21:23.078Z,11.56
2023-04-05T14:24:08.932Z,11.41
2023-04-05T14:26:55.232Z,11.31
2023-04-05T14:29:41.842Z,11.23
2023-04-05T14:32:27.624Z,11.09
2023-04-05T14:35:14.787Z,10.90
2023-04-05T14:38:00.678Z,10.75
2023-04-05T14:40:46.871Z,10.62
2023-04-05T14:43:32.748Z,10.52
2023-04-05T14:46:18.551Z,10.39
2023-04-05T14:49:04.269Z,10.30
2023-04-05T14:51:51.206Z,10.19
2023-04-05T14:54:37.047Z,10.17
2023-04-05T14:57:23.279Z,9.99
2023-04-05T15:00:09.916Z,10.00
2023-04-05T15:02:56.069Z,9.87
2023-04-05T15:05:42.426Z,9.80
2023-04-05T15:08:29.477Z,9.70
2023-04-05T15:11:15.723Z,9.63
2023-04-05T15:14:01.917Z,9.60
2023-04-05T15:16:47.935Z,9.55
2023-04-05T15:19:35.419Z,9.56
2023-04-05T15:22:23.339Z,9.49
2023-04-05T15:25:11.429Z,9.14
2023-04-05T15:28:00.962Z,9.23
2023-04-05T15:30:48.154Z,9.28
2023-04-05T15:33:33.969Z,9.25
2023-04-05T15:36:19.862Z,9.00
2023-04-05T15:39:05.802Z,9.00
2023-04-05T15:41:53.263Z,8.84
2023-04-05T15:44:38.945Z,8.87
2023-04-05T15:47:25.007Z,8.84
2023-04-05T15:50:11.008Z,8.87
2023-04-05T15:52:57.122Z,8.96
2023-04-05T15:55:43.340Z,8.87
2023-04-05T15:58:30.531Z,8.95
2023-04-05T16:01:16.383Z,8.91
2023-04-05T16:04:03.004Z,9.02
2023-04-05T16:06:49.299Z,9.01
2023-04-05T16:09:34.921Z,9.16
2023-04-05T16:12:20.817Z,9.23
2023-04-05T16:15:08.673Z,9.30
2023-04-05T16:17:54.708Z,9.36
2023-04-05T16:20:40.847Z,9.34
2023-04-05T16:23:26.535Z,9.41
2023-04-05T16:26:12.678Z,9.41
2023-04-05T16:28:58.872Z,9.46
2023-04-05T16:31:47.289Z,9.50
2023-04-05T16:34:33.656Z,9.54
2023-04-05T16:37:20.774Z,9.54
2023-04-05T16:40:07.610Z,9.45
2023-04-05T16:42:54.158Z,9.48
2023-04-05T16:45:40.143Z,9.45
2023-04-05T16:48:27.544Z,9.47
2023-04-05T16:51:15.595Z,9.44
2023-04-05T16:54:01.448Z,9.45
2023-04-05T16:56:47.148Z,9.38
2023-04-05T16:59:32.979Z,9.34
2023-04-05T17:02:19.358Z,9.29
2023-04-05T17:05:07.315Z,9.00
2023-04-05T17:07:53.802Z,9.17
2023-04-05T17:10:39.708Z,9.10
2023-04-05T17:13:25.933Z,9.03
2023-04-05T17:16:12.516Z,9.03
2023-04-05T17:18:58.647Z,9.05
2023-04-05T17:21:47.402Z,9.07
2023-04-05T17:24:34.291Z,8.86
2023-04-05T17:27:20.113Z,8.86
2023-04-05T17:30:06.448Z,8.73
2023-04-05T17:32:52.336Z,8.54
2023-04-05T17:35:38.538Z,8.55
2023-04-05T17:38:26.407Z,8.30
2023-04-05T17:41:12.666Z,8.38
2023-04-05T17:43:58.456Z,8.28
2023-04-05T17:46:51.036Z,8.28
2023-04-05T17:49:43.836Z,8.21
2023-04-05T17:52:29.950Z,8.09
2023-04-05T17:55:17.118Z,7.91
2023-04-05T17:58:03.094Z,7.84
2023-04-05T18:00:50.910Z,7.81
2023-04-05T18:03:37.019Z,7.72
2023-04-05T18:06:23.041Z,7.55
2023-04-05T18:09:09.846Z,7.42
2023-04-05T18:11:56.990Z,7.23
2023-04-05T18:14:43.185Z,7.15
2023-04-05T18:17:28.893Z,7.16
2023-04-05T18:20:14.850Z,7.08
2023-04-05T18:23:00.863Z,6.93
2023-04-05T18:25:47.572Z,6.79
2023-04-05T18:28:35.354Z,6.75
2023-04-05T18:31:23.111Z,6.61
2023-04-05T18:34:09.173Z,6.54
2023-04-05T18:36:54.981Z,6.34
2023-04-05T18:39:41.679Z,6.30
2023-04-05T18:42:27.728Z,6.21
2023-04-05T18:45:15.582Z,6.09
2023-04-05T18:48:01.696Z,5.99
2023-04-05T18:50:47.831Z,5.88
2023-04-05T18:53:33.724Z,5.76
2023-04-05T18:56:19.524Z,5.66
2023-04-05T18:59:05.626Z,5.55
2023-04-05T19:01:53.822Z,5.44
2023-04-05T19:04:39.662Z,5.32
2023-04-05T19:07:25.580Z,5.19
2023-04-05T19:10:11.818Z,5.10
2023-04-05T19:12:57.667Z,4.96
2023-04-05T19:15:43.711Z,4.87
2023-04-05T19:18:31.351Z,4.75
2023-04-05T19:21:17.185Z,4.61
2023-04-05T19:24:03.606Z,4.48
2023-04-05T19:26:49.673Z,4.36
2023-04-05T19:29:35.718Z,4.28
2023-04-05T19:32:22.798Z,4.18
2023-04-05T19:35:10.388Z,4.07
2023-04-05T19:37:56.236Z,3.92
2023-04-05T19:40:42.438Z,3.84
2023-04-05T19:43:31.449Z,3.79
2023-04-05T19:46:19.196Z,3.72
2023-04-05T19:49:06.779Z,3.62
2023-04-05T19:51:56.086Z,3.53
2023-04-05T19:54:41.862Z,3.40
2023-04-05T19:57:27.966Z,3.32
2023-04-05T20:00:28.966Z,3.27
2023-04-05T20:03:21.810Z,3.21
2023-04-05T20:06:08.886Z,3.16
2023-04-05T20:08:56.097Z,3.11
2023-04-05T20:11:42.193Z,3.06
2023-04-05T20:14:28.572Z,2.97
2023-04-05T20:17:15.964Z,2.91
2023-04-05T20:20:03.613Z,2.85
2023-04-05T20:22:49.863Z,2.79
2023-04-05T20:25:39.728Z,2.70
2023-04-05T20:28:29.496Z,2.61
2023-04-05T20:31:17.898Z,2.52
2023-04-05T20:34:08.571Z,2.46
2023-04-05T20:36:57.038Z,2.40
2023-04-05T20:39:42.888Z,2.33
2023-04-05T20:42:32.432Z,2.24
2023-04-05T20:45:20.052Z,2.21
2023-04-05T20:48:06.914Z,2.15
2023-04-05T20:50:53.398Z,2.09
2023-04-05T20:53:39.634Z,2.01
2023-04-05T20:56:25.962Z,1.92
2023-04-05T20:59:13.888Z,1.87
2023-04-05T21:01:59.939Z,1.82
2023-04-05T21:04:46.763Z,1.75
2023-04-05T21:07:34.155Z,1.72
2023-04-05T21:10:21.843Z,1.67
2023-04-05T21:13:08.066Z,1.61
2023-04-05T21:15:55.840Z,1.57
2023-04-05T21:18:41.956Z,1.50
2023-04-05T21:21:27.966Z,1.46
2023-04-05T21:24:13.886Z,1.40
2023-04-05T21:26:59.701Z,1.35
2023-04-05T21:29:45.459Z,1.27
2023-04-05T21:32:32.533Z,1.23
2023-04-05T21:35:18.481Z,1.20
2023-04-05T21:38:04.449Z,1.16
2023-04-05T21:40:50.849Z,1.09
2023-04-05T21:43:37.884Z,1.06
2023-04-05T21:46:23.905Z,1.05
2023-04-05T21:49:10.994Z,0.99
2023-04-05T21:51:56.932Z,0.97
2023-04-05T21:54:42.690Z,0.93
2023-04-05T21:57:28.510Z,0.87
2023-04-05T22:00:15.543Z,0.84
2023-04-05T22:03:01.472Z,0.80
2023-04-05T22:05:49.159Z,0.78
2023-04-05T22:08:35.035Z,0.74
2023-04-05T22:11:20.915Z,0.70
2023-04-05T22:14:06.701Z,0.64
2023-04-05T22:16:53.074Z,0.57
2023-04-05T22:19:43.633Z,0.54
2023-04-05T22:22:30.981Z,0.53
2023-04-05T22:25:16.691Z,0.47
2023-04-05T22:28:02.356Z,0.44
2023-04-05T22:30:48.067Z,0.39
2023-04-05T22:33:33.872Z,0.31
2023-04-05T22:36:19.515Z,0.28
2023-04-05T22:39:06.637Z,0.16
2023-04-05T22:41:52.257Z,0.20
2023-04-05T22:44:39.555Z,0.21
2023-04-05T22:47:25.607Z,0.20
2023-04-05T22:50:11.771Z,0.20
2023-04-05T22:52:57.706Z,0.19
2023-04-05T22:55:44.929Z,0.17
2023-04-05T22:58:32.627Z,0.16
2023-04-05T23:01:19.328Z,0.12
2023-04-05T23:04:05.597Z,0.09
2023-04-05T23:06:51.751Z,0.04
2023-04-05T23:09:38.068Z,0.06
2023-04-05T23:12:25.360Z,0.02
2023-04-05T23:15:11.874Z,0.01
2023-04-05T23:17:57.623Z,-0.05
2023-04-05T23:20:43.249Z,-0.07
2023-04-05T23:23:28.873Z,-0.09
2023-04-05T23:26:14.751Z,-0.11
2023-04-05T23:29:01.877Z,-0.13
2023-04-05T23:31:48.491Z,-0.15
2023-04-05T23:34:34.555Z,-0.17
2023-04-05T23:37:20.646Z,-0.22
2023-04-05T23:40:07.374Z,-0.24
2023-04-05T23:42:53.473Z,-0.27
2023-04-05T23:45:40.644Z,-0.30
2023-04-05T23:48:26.273Z,-0.34
2023-04-05T23:51:11.947Z,-0.37
2023-04-05T23:53:57.754Z,-0.40
2023-04-05T23:56:43.670Z,-0.42
2023-04-05T23:59:29.625Z,-0.44
